Time;durP1;ratioP1;P1;durP2;ratioP2;P2;SDS_P1;SDS_P2;PMS_P1;PMS_P2;Temp;Humidity;BMP_temperature;BMP_pressure;BME280_temperature;BME280_humidity;BME280_pressure;Samples;Min_cycle;Max_cycle;Signal;HPM_P1;HPM_P2
2021/11/15 00:01:58;;;;;;;5.10;3.75;;;19.80;47.80;;;23.45;32.31;102707.75;5093523;28;20632;-40
2021/11/15 00:04:24;;;;;;;5.38;4.38;;;19.80;47.80;;;23.41;32.51;102700.81;5092753;28;20048;-39
2021/11/15 00:06:50;;;;;;;5.15;3.78;;;19.80;47.70;;;23.45;32.49;102713.09;5093210;28;20044;-38
2021/11/15 00:09:16;;;;;;;5.90;4.47;;;19.80;47.80;;;23.44;32.61;102701.53;5093262;28;20059;-40
2021/11/15 00:11:42;;;;;;;5.80;4.18;;;19.80;47.70;;;23.44;32.25;102698.88;5093582;28;20495;-39
2021/11/15 00:14:08;;;;;;;6.25;4.53;;;19.80;47.80;;;23.42;32.52;102698.06;5093524;28;20093;-39
2021/11/15 00:16:34;;;;;;;6.43;4.55;;;19.80;47.70;;;23.45;32.62;102691.72;5093310;28;20055;-40
2021/11/15 00:19:02;;;;;;;5.47;4.32;;;19.80;47.70;;;23.44;32.49;102690.88;5092934;28;20507;-38
2021/11/15 00:21:28;;;;;;;5.53;4.15;;;19.80;47.70;;;23.43;32.46;102691.78;5093144;28;20513;-40
2021/11/15 00:23:53;;;;;;;5.88;4.45;;;19.80;47.70;;;23.41;32.41;102680.31;5074995;28;20044;-39
2021/11/15 00:26:19;;;;;;;5.68;4.47;;;19.80;47.70;;;23.45;32.40;102683.72;5093121;28;20070;-38
2021/11/15 00:28:45;;;;;;;4.60;3.88;;;19.80;47.70;;;23.44;32.36;102680.19;5093007;28;20052;-39
2021/11/15 00:31:11;;;;;;;6.45;4.82;;;19.80;47.70;;;23.44;32.42;102679.31;5093043;28;20135;-39
2021/11/15 00:33:37;;;;;;;6.90;4.43;;;19.80;47.70;;;23.44;32.37;102682.84;5092939;28;20109;-40
2021/11/15 00:36:03;;;;;;;5.07;3.92;;;19.80;47.70;;;23.43;32.37;102673.09;5092859;28;20480;-40
2021/11/15 00:38:29;;;;;;;6.55;4.43;;;19.80;47.80;;;23.42;32.45;102678.50;5092903;28;20059;-39
2021/11/15 00:40:55;;;;;;;5.18;3.83;;;19.80;47.70;;;23.42;32.56;102675.84;5092891;28;20044;-39
2021/11/15 00:43:21;;;;;;;6.10;4.30;;;19.80;47.70;;;23.45;32.30;102681.91;5092794;28;20040;-39
2021/11/15 00:45:47;;;;;;;6.40;4.57;;;19.80;47.70;;;23.42;32.44;102671.38;5092880;28;20085;-39
2021/11/15 00:48:13;;;;;;;5.45;4.10;;;19.80;47.70;;;23.45;32.28;102675.69;5093394;28;20052;-39
2021/11/15 00:50:39;;;;;;;4.95;4.00;;;19.80;47.70;;;23.45;32.47;102678.38;5092546;28;20036;-40
2021/11/15 00:53:06;;;;;;;5.93;3.83;;;19.80;47.70;;;23.43;32.31;102672.25;5092735;28;20085;-40
2021/11/15 00:55:34;;;;;;;5.38;4.32;;;19.80;47.70;;;23.44;32.36;102674.84;5092665;28;20144;-39
2021/11/15 00:58:03;;;;;;;5.50;4.10;;;19.80;47.70;;;23.42;32.45;102671.38;5092922;28;20059;-40
2021/11/15 01:00:30;;;;;;;6.88;4.78;;;19.80;47.70;;;23.45;32.47;102686.38;5092583;28;20056;-40
2021/11/15 01:02:58;;;;;;;5.82;4.28;;;19.80;47.70;;;23.44;32.60;102684.66;5092605;28;20055;-40
2021/11/15 01:05:25;;;;;;;5.47;4.07;;;19.80;47.70;;;23.45;32.39;102687.25;5092625;28;20131;-39
2021/11/15 01:07:52;;;;;;;5.80;4.75;;;19.80;47.70;;;23.44;32.50;102682.84;5092118;28;20595;-39
2021/11/15 01:10:20;;;;;;;5.57;4.35;;;19.80;47.70;;;23.44;32.23;102677.50;5092420;28;20127;-39
2021/11/15 01:12:46;;;;;;;5.22;3.90;;;19.80;47.70;;;23.43;32.62;102673.09;5092713;28;20048;-39
2021/11/15 01:15:18;;;;;;;6.30;4.30;;;19.80;47.70;;;23.43;32.48;102665.09;5092306;28;20076;-39
2021/11/15 01:17:44;;;;;;;5.32;4.28;;;19.80;47.70;;;23.45;32.50;102667.69;5095570;28;20060;-39
2021/11/15 01:20:14;;;;;;;5.47;4.10;;;19.80;47.70;;;23.43;32.59;102667.75;5095752;28;20052;-39
2021/11/15 01:22:40;;;;;;;5.78;3.90;;;19.80;47.70;;;23.44;32.17;102668.66;5095829;28;20055;-40
2021/11/15 01:25:08;;;;;;;4.97;4.07;;;19.80;47.70;;;23.44;32.51;102664.16;5096236;28;20044;-39
2021/11/15 01:27:34;;;;;;;4.60;4.03;;;19.80;47.70;;;23.47;32.52;102668.50;5095819;28;20048;-39
2021/11/15 01:30:00;;;;;;;4.85;3.97;;;19.80;47.70;;;23.42;32.34;102659.81;5096188;28;20044;-39
2021/11/15 01:32:26;;;;;;;4.53;3.50;;;19.80;47.70;;;23.44;32.47;102652.63;5095913;28;20395;-39
2021/11/15 01:34:52;;;;;;;5.38;4.00;;;19.80;47.70;;;23.46;32.32;102661.44;5095634;28;20051;-40
2021/11/15 01:37:18;;;;;;;5.95;4.32;;;19.80;47.70;;;23.44;32.64;102669.50;5095780;28;20048;-39
2021/11/15 01:39:44;;;;;;;5.80;4.22;;;19.80;47.70;;;23.44;32.44;102665.97;5095487;28;20044;-39
2021/11/15 01:42:10;;;;;;;5.93;3.85;;;19.80;47.70;;;23.45;32.45;102671.22;5095728;28;20067;-38
2021/11/15 01:44:36;;;;;;;5.93;4.03;;;19.80;47.70;;;23.44;32.19;102672.19;5095580;28;20510;-39
2021/11/15 01:47:03;;;;;;;5.90;4.28;;;19.80;47.70;;;23.45;32.30;102675.69;5095626;28;20040;-39
2021/11/15 01:49:29;;;;;;;6.00;4.15;;;19.90;47.70;;;23.48;32.59;102684.44;5075693;28;20253;-39
2021/11/15 01:51:55;;;;;;;5.22;4.25;;;19.80;47.70;;;23.45;32.32;102678.38;5095864;28;20065;-41
2021/11/15 01:54:21;;;;;;;6.35;4.63;;;19.90;47.70;;;23.47;32.26;102676.50;5095415;28;20652;-40
2021/11/15 01:56:51;;;;;;;6.50;4.95;;;19.80;47.60;;;23.47;32.35;102682.72;5095277;28;20047;-38
2021/11/15 01:59:18;;;;;;;6.10;4.10;;;19.80;47.60;;;23.44;32.26;102679.31;5095633;28;20048;-39
2021/11/15 02:01:44;;;;;;;6.03;4.18;;;19.80;47.60;;;23.45;32.36;102678.38;5095979;28;20044;-39
2021/11/15 02:04:10;;;;;;;5.65;4.00;;;19.80;47.60;;;23.45;32.53;102681.03;5095234;28;20516;-39
2021/11/15 02:06:36;;;;;;;5.90;4.30;;;19.80;47.60;;;23.46;32.42;102685.47;5095157;28;20126;-39
2021/11/15 02:09:04;;;;;;;6.60;4.00;;;19.80;47.60;;;23.47;32.56;102685.41;5095291;28;20051;-40
2021/11/15 02:11:30;;;;;;;5.00;4.20;;;19.90;47.70;;;23.46;32.40;102678.31;5095258;28;20051;-38
2021/11/15 02:13:56;;;;;;;5.45;3.95;;;19.80;47.70;;;23.46;32.50;102682.78;5095055;28;20123;-40
2021/11/15 02:16:22;;;;;;;5.20;3.78;;;19.80;47.60;;;23.49;32.28;102691.53;5095143;28;20093;-39
2021/11/15 02:18:48;;;;;;;5.72;4.20;;;19.80;47.60;;;23.48;32.46;102691.59;5075284;28;20051;-39
2021/11/15 02:21:14;;;;;;;6.40;4.65;;;19.80;47.60;;;23.48;32.44;102689.78;5094985;28;20044;-39
2021/11/15 02:23:43;;;;;;;5.00;4.15;;;19.90;47.70;;;23.48;32.33;102689.78;5095020;28;20091;-39
2021/11/15 02:26:13;;;;;;;5.07;3.63;;;19.80;47.60;;;23.46;32.53;102686.31;5095027;28;20040;-39
2021/11/15 02:28:43;;;;;;;5.78;4.30;;;19.90;47.70;;;23.48;32.56;102692.44;5094075;28;20044;-39
2021/11/15 02:31:13;;;;;;;5.05;3.53;;;19.80;47.60;;;23.50;32.30;102681.72;5094808;28;20419;-38
2021/11/15 02:33:39;;;;;;;5.57;4.60;;;19.90;47.70;;;23.52;32.16;102689.66;5094831;28;20044;-38
2021/11/15 02:36:07;;;;;;;5.93;4.00;;;19.90;47.70;;;23.49;32.29;102683.53;5095028;28;20048;-39
2021/11/15 02:38:33;;;;;;;6.43;4.40;;;19.90;47.70;;;23.49;32.38;102683.53;5094640;28;20086;-39
2021/11/15 02:40:59;;;;;;;4.68;3.80;;;19.80;47.60;;;23.42;32.24;102671.38;5094884;28;20040;-39
2021/11/15 02:43:25;;;;;;;5.97;4.15;;;19.80;47.60;;;23.49;32.39;102680.84;5094718;28;20040;-38
2021/11/15 02:45:51;;;;;;;6.10;4.22;;;19.80;47.60;;;23.47;32.52;102680.06;5094754;28;20036;-39
2021/11/15 02:48:22;;;;;;;5.43;3.85;;;19.80;47.60;;;23.48;32.51;102679.09;5094683;28;20101;-38
2021/11/15 02:50:49;;;;;;;6.00;4.47;;;19.90;47.70;;;23.49;32.29;102675.50;5094510;28;20044;-40
2021/11/15 02:53:15;;;;;;;6.93;4.80;;;19.90;47.70;;;23.47;32.45;102680.06;5094503;28;20036;-39
2021/11/15 02:55:45;;;;;;;5.10;3.90;;;19.90;47.60;;;23.48;32.34;102671.09;5094193;28;20048;-39
2021/11/15 02:58:13;;;;;;;5.55;4.43;;;19.90;47.70;;;23.50;32.39;102671.03;5094556;28;20048;-39
2021/11/15 03:01:05;;;;;;;5.80;4.43;;;19.90;47.70;;;23.49;32.18;102675.50;5094466;28;20062;-38
2021/11/15 03:03:31;;;;;;;6.43;4.57;;;19.90;47.70;;;23.48;32.36;102670.22;5094472;28;20478;-39
2021/11/15 03:05:58;;;;;;;6.10;4.53;;;19.90;47.70;;;23.49;32.34;102672.84;5094034;28;20505;-39
2021/11/15 03:08:26;;;;;;;5.50;4.05;;;19.90;47.70;;;23.48;32.40;102670.22;5094391;28;20079;-40
2021/11/15 03:10:58;;;;;;;5.60;4.35;;;19.90;47.70;;;23.48;32.36;102671.09;5094718;28;20048;-39
2021/11/15 03:13:25;;;;;;;4.95;3.65;;;19.90;47.60;;;23.47;32.39;102680.06;5094288;28;20131;-40
2021/11/15 03:15:53;;;;;;;6.45;4.35;;;19.90;47.60;;;23.45;32.43;102665.03;5093894;28;20062;-39
2021/11/15 03:18:28;;;;;;;5.18;4.20;;;19.90;47.60;;;23.48;32.34;102673.75;5094293;28;20155;-39
2021/11/15 03:21:05;;;;;;;5.03;3.88;;;19.90;47.60;;;23.46;32.31;102667.63;5090007;28;20051;-39
2021/11/15 03:23:34;;;;;;;5.63;4.13;;;19.90;47.70;;;23.53;32.60;102678.06;5094037;28;20052;-39
2021/11/15 03:26:01;;;;;;;4.60;3.95;;;19.90;47.60;;;23.51;32.33;102661.22;5094370;28;20403;-39
2021/11/15 03:28:33;;;;;;;5.05;4.13;;;19.90;47.50;;;23.52;32.32;102671.81;5094082;28;20044;-39
2021/11/15 03:31:05;;;;;;;5.10;3.83;;;19.90;47.50;;;23.53;32.49;102664.69;5090995;28;20051;-39
2021/11/15 03:33:32;;;;;;;5.55;4.03;;;20.00;47.50;;;23.57;32.50;102667.16;5093912;28;20044;-39
2021/11/15 03:35:58;;;;;;;5.22;3.95;;;20.00;47.40;;;23.56;32.41;102667.25;5075807;28;20155;-39
2021/11/15 03:38:25;;;;;;;6.40;4.47;;;20.00;47.40;;;23.59;32.47;102672.41;5094145;28;20043;-39
2021/11/15 03:40:51;;;;;;;6.05;4.45;;;20.00;47.40;;;23.59;32.40;102670.63;5092388;28;20048;-39
2021/11/15 03:43:17;;;;;;;4.75;3.92;;;20.00;47.40;;;23.62;32.36;102666.94;5094086;28;20169;-39
2021/11/15 03:45:43;;;;;;;4.38;3.53;;;20.00;47.40;;;23.61;32.28;102658.06;5093830;28;20483;-39
2021/11/15 03:48:10;;;;;;;5.63;4.13;;;20.00;47.30;;;23.59;32.30;102651.06;5094190;28;20525;-39
2021/11/15 03:50:37;;;;;;;4.85;3.83;;;20.00;47.30;;;23.63;32.34;102653.53;5093911;28;20048;-39
2021/11/15 03:53:07;;;;;;;4.88;4.13;;;20.10;47.30;;;23.65;32.29;102656.97;5093645;28;20051;-39
2021/11/15 03:55:33;;;;;;;6.07;4.45;;;20.10;47.30;;;23.64;32.18;102654.41;5093486;28;20059;-39
2021/11/15 03:58:00;;;;;;;4.68;3.90;;;20.10;47.20;;;23.69;32.25;102657.75;5093538;28;20051;-39
2021/11/15 04:00:31;;;;;;;5.20;4.07;;;20.10;47.20;;;23.68;32.27;102653.31;5093573;28;20044;-40
2021/11/15 04:03:03;;;;;;;5.30;4.10;;;20.20;47.10;;;23.73;32.39;102659.31;5093448;28;20159;-39
2021/11/15 04:05:36;;;;;;;5.13;4.13;;;20.20;47.10;;;23.74;32.09;102666.41;5093517;28;20135;-38
2021/11/15 04:08:05;;;;;;;5.10;3.83;;;20.20;47.10;;;23.72;32.32;102660.25;5093688;28;20052;-40
2021/11/15 04:10:41;;;;;;;5.50;3.95;;;20.20;47.00;;;23.76;32.34;102663.66;5093401;28;20076;-39
2021/11/15 04:13:24;;;;;;;5.65;4.22;;;20.20;47.00;;;23.77;32.27;102655.59;5093576;28;20127;-40
2021/11/15 04:15:56;;;;;;;5.60;4.10;;;20.30;47.00;;;23.80;31.98;102658.09;5093409;28;20052;-40
2021/11/15 04:18:28;;;;;;;6.32;4.30;;;20.30;46.90;;;23.80;32.16;102655.41;5092619;28;20079;-41
2021/11/15 04:20:55;;;;;;;6.50;4.10;;;20.30;46.90;;;23.82;32.21;102656.28;5093164;28;20110;-39
2021/11/15 04:23:21;;;;;;;6.30;4.50;;;20.30;46.80;;;23.85;32.09;102660.59;5093772;28;20070;-39
2021/11/15 04:25:47;;;;;;;4.93;3.80;;;20.40;46.70;;;23.87;31.98;102661.38;5093614;28;20404;-39
2021/11/15 04:28:13;;;;;;;6.70;4.82;;;20.40;46.70;;;23.88;31.89;102667.63;5093118;28;20122;-38
2021/11/15 04:30:39;;;;;;;5.85;4.45;;;20.40;46.70;;;23.90;32.09;102657.72;5093124;28;20458;-39
2021/11/15 04:33:07;;;;;;;4.72;3.70;;;20.40;46.70;;;23.90;32.01;102655.03;5092982;28;20048;-38
2021/11/15 04:35:35;;;;;;;4.95;3.75;;;20.40;46.70;;;23.92;32.09;102658.50;5093351;28;20052;-39
2021/11/15 04:38:02;;;;;;;5.60;4.47;;;20.40;46.70;;;23.94;31.78;102656.63;5092960;28;20464;-39
2021/11/15 04:40:28;;;;;;;5.55;4.40;;;20.40;46.70;;;23.95;31.87;102655.69;5092826;28;20127;-39
2021/11/15 04:42:54;;;;;;;5.80;4.03;;;20.40;46.70;;;23.95;31.97;102656.56;5092860;28;20395;-40
2021/11/15 04:45:20;;;;;;;5.47;4.38;;;20.40;46.70;;;23.98;31.90;102663.56;5088557;28;20052;-39
2021/11/15 04:47:47;;;;;;;5.43;4.18;;;20.40;46.60;;;23.99;31.99;102659.94;5092674;28;20056;-39
2021/11/15 04:50:14;;;;;;;5.20;4.05;;;20.40;46.60;;;23.97;31.95;102656.50;5092495;28;20054;-39
2021/11/15 04:52:40;;;;;;;5.45;3.90;;;20.40;46.60;;;24.00;31.72;102651.88;5072370;28;20404;-39
2021/11/15 04:55:09;;;;;;;5.82;4.60;;;20.40;46.60;;;23.99;31.85;102663.50;5092542;28;20062;-39
2021/11/15 04:57:35;;;;;;;6.43;4.47;;;20.40;46.60;;;23.99;31.70;102655.50;5092587;28;20120;-39
2021/11/15 05:00:06;;;;;;;5.15;4.20;;;20.50;46.60;;;24.00;31.83;102653.69;5092461;28;20044;-39
2021/11/15 05:02:32;;;;;;;6.60;4.47;;;20.50;46.60;;;24.06;31.71;102661.41;5092994;28;20048;-39
2021/11/15 05:04:58;;;;;;;5.57;3.72;;;20.50;46.60;;;24.03;31.86;102656.22;5092485;28;20055;-38
2021/11/15 05:07:24;;;;;;;5.25;3.70;;;20.50;46.60;;;24.04;31.70;102649.94;5092558;28;20062;-39
2021/11/15 05:09:50;;;;;;;6.25;4.55;;;20.50;46.90;;;24.04;31.96;102658.81;5092752;28;20095;-38
2021/11/15 05:12:15;;;;;;;5.38;4.32;;;20.50;46.60;;;24.07;31.71;102657.78;5092586;28;20062;-40
2021/11/15 05:14:41;;;;;;;5.10;4.07;;;20.40;46.60;;;24.05;31.71;102655.19;5092603;28;20048;-39
2021/11/15 05:17:07;;;;;;;5.20;3.67;;;20.50;46.60;;;24.06;31.63;102653.41;5092485;28;20056;-39
2021/11/15 05:19:33;;;;;;;5.53;4.53;;;20.50;46.60;;;24.05;31.90;102647.16;5092221;28;20044;-39
2021/11/15 05:21:59;;;;;;;5.70;4.30;;;20.50;46.60;;;24.05;31.63;102648.97;5092419;28;20419;-39
2021/11/15 05:24:25;;;;;;;6.20;4.20;;;20.50;46.60;;;24.05;31.71;102647.16;5092891;28;20044;-39
2021/11/15 05:26:50;;;;;;;5.65;4.32;;;20.50;46.60;;;24.09;31.74;102657.72;5092312;28;20476;-39
2021/11/15 05:29:16;;;;;;;5.93;4.38;;;20.50;46.60;;;24.10;31.73;102656.78;5072137;28;20057;-39
2021/11/15 05:31:42;;;;;;;5.88;4.38;;;20.50;46.60;;;24.05;31.68;102651.66;5092467;28;20495;-40
2021/11/15 05:34:08;;;;;;;6.93;4.53;;;20.50;46.60;;;24.05;31.78;102657.00;5092709;28;20459;-39
2021/11/15 05:36:34;;;;;;;5.68;4.50;;;20.50;46.60;;;24.10;31.77;102667.47;5092087;28;20048;-39
2021/11/15 05:39:00;;;;;;;5.57;4.40;;;20.40;46.60;;;24.06;31.74;102661.41;5091926;28;20054;-41
2021/11/15 05:41:26;;;;;;;5.80;4.60;;;20.50;46.60;;;24.07;31.77;102657.78;5092349;28;20056;-40
2021/11/15 05:43:51;;;;;;;5.15;3.83;;;20.50;46.60;;;24.08;31.86;102661.34;5092061;28;20043;-38
2021/11/15 05:46:17;;;;;;;6.05;4.45;;;20.40;46.60;;;24.10;31.64;102668.34;5092389;28;20102;-39
2021/11/15 05:48:43;;;;;;;6.13;4.43;;;20.50;46.60;;;24.05;31.77;102662.34;5092528;28;20610;-38
2021/11/15 05:51:09;;;;;;;6.53;4.70;;;20.50;46.60;;;24.11;31.81;102671.91;5092598;28;20047;-39
2021/11/15 05:53:36;;;;;;;5.60;4.07;;;20.50;46.60;;;24.10;31.73;102664.81;5091895;28;20048;-39
2021/11/15 05:56:06;;;;;;;5.70;4.45;;;20.50;46.60;;;24.09;31.69;102668.41;5091988;28;20105;-39
2021/11/15 05:58:32;;;;;;;6.65;4.90;;;20.50;46.60;;;24.11;31.61;102663.88;5091861;28;20047;-39
2021/11/15 06:00:59;;;;;;;5.35;4.25;;;20.50;46.60;;;24.11;31.51;102670.09;5092035;28;20105;-39
2021/11/15 06:03:26;;;;;;;5.78;4.57;;;20.50;46.60;;;24.09;31.65;102660.38;5093224;28;20483;-39
2021/11/15 06:05:51;;;;;;;7.30;4.95;;;20.50;46.60;;;24.10;31.54;102665.66;5095273;28;20098;-39
2021/11/15 06:08:17;;;;;;;4.85;4.03;;;20.50;46.60;;;24.09;31.54;102660.38;5095069;28;20052;-38
2021/11/15 06:10:43;;;;;;;7.03;4.82;;;20.50;46.60;;;24.10;31.79;102665.66;5095212;28;20044;-39
2021/11/15 06:13:10;;;;;;;5.80;4.28;;;20.40;46.60;;;24.09;31.58;102666.63;5095570;28;20127;-39
2021/11/15 06:15:36;;;;;;;5.88;4.50;;;20.40;46.60;;;24.06;31.57;102664.09;5095098;28;20063;-39
2021/11/15 06:18:03;;;;;;;5.60;4.35;;;20.40;46.60;;;24.07;31.57;102671.16;5095130;28;20183;-39
2021/11/15 06:20:29;;;;;;;7.30;5.05;;;20.50;46.70;;;24.06;31.73;102666.75;5094999;28;20079;-39
2021/11/15 06:22:55;;;;;;;5.97;4.68;;;20.50;46.70;;;24.05;31.73;102665.88;5076950;28;20060;-39
2021/11/15 06:25:23;;;;;;;6.47;4.90;;;20.40;46.60;;;24.09;31.77;102669.28;5095046;28;20101;-39
2021/11/15 06:27:49;;;;;;;6.45;4.60;;;20.40;46.60;;;24.07;31.50;102668.47;5094954;28;20059;-39
2021/11/15 06:30:18;;;;;;;6.38;4.60;;;20.50;46.70;;;24.08;31.67;102664.03;5094482;28;20052;-39
2021/11/15 06:32:44;;;;;;;5.68;4.35;;;20.50;46.60;;;24.08;31.63;102670.22;5094787;28;20056;-39
2021/11/15 06:35:11;;;;;;;6.70;4.70;;;20.50;46.60;;;24.12;31.49;102682.50;5094937;28;20448;-39
2021/11/15 06:37:37;;;;;;;6.50;4.80;;;20.50;46.50;;;24.11;31.55;102683.44;5094673;28;20056;-40
2021/11/15 06:40:06;;;;;;;5.88;4.20;;;20.50;46.60;;;24.12;31.57;102682.50;5094511;28;20079;-40
2021/11/15 06:42:33;;;;;;;7.05;5.10;;;20.50;46.60;;;24.12;31.40;102679.81;5094517;28;20385;-40
2021/11/15 06:44:58;;;;;;;4.88;4.00;;;20.50;46.50;;;24.13;31.64;102678.88;5094922;28;20181;-38
2021/11/15 06:47:24;;;;;;;6.10;4.32;;;20.50;46.50;;;24.11;31.71;102674.56;5094950;28;20445;-40
2021/11/15 06:49:51;;;;;;;6.88;4.75;;;20.50;46.50;;;24.11;31.69;102680.78;5094481;28;20487;-39
2021/11/15 06:52:22;;;;;;;7.30;5.00;;;20.50;46.50;;;24.11;31.67;102680.78;5094680;28;20106;-39
2021/11/15 06:54:48;;;;;;;6.22;4.85;;;20.50;47.00;;;24.11;31.64;102672.75;5094539;28;20544;-39
2021/11/15 06:57:15;;;;;;;6.60;5.00;;;20.50;46.40;;;24.13;31.66;102678.03;5094638;28;20051;-39
2021/11/15 06:59:41;;;;;;;6.88;4.95;;;20.50;46.40;;;24.10;31.47;102681.69;5094317;28;20044;-40
2021/11/15 07:02:08;;;;;;;7.43;4.97;;;20.50;46.40;;;24.13;31.65;102689.59;5094428;28;20052;-39
2021/11/15 07:04:34;;;;;;;7.35;5.10;;;20.50;46.40;;;24.14;31.46;102694.00;5094946;28;20062;-39
2021/11/15 07:07:00;;;;;;;6.35;4.32;;;20.50;46.40;;;24.14;31.44;102687.75;5094523;28;20130;-39
2021/11/15 07:09:26;;;;;;;5.63;4.25;;;20.50;46.40;;;24.11;31.80;102675.44;5094757;28;20126;-39
2021/11/15 07:11:54;;;;;;;6.80;4.90;;;20.50;46.40;;;24.10;31.57;102680.84;5094202;28;20475;-39
2021/11/15 07:14:20;;;;;;;7.38;5.07;;;20.50;46.40;;;24.13;31.63;102684.22;5093893;28;20047;-39
2021/11/15 07:16:46;;;;;;;6.85;5.30;;;20.50;46.50;;;24.14;31.77;102683.31;5093899;28;20044;-39
2021/11/15 07:19:13;;;;;;;6.47;5.05;;;20.50;46.50;;;24.14;31.44;102685.09;5094376;28;20047;-39
2021/11/15 07:21:38;;;;;;;6.90;5.00;;;20.50;46.50;;;24.13;31.45;102678.03;5094315;28;20044;-40
2021/11/15 07:24:05;;;;;;;7.07;5.07;;;20.50;46.40;;;24.13;31.45;102681.56;5093930;28;20113;-39
2021/11/15 07:26:31;;;;;;;7.65;5.15;;;20.50;46.40;;;24.14;31.46;102685.97;5093810;28;20044;-39
2021/11/15 07:28:57;;;;;;;7.47;5.28;;;20.50;46.50;;;24.16;31.41;102685.91;5093700;28;20051;-39
2021/11/15 07:31:23;;;;;;;6.93;5.40;;;20.50;46.50;;;24.15;31.63;102685.03;5093755;28;20143;-39
2021/11/15 07:33:50;;;;;;;8.27;5.60;;;20.50;46.40;;;24.15;31.40;102685.03;5093473;28;20044;-39
2021/11/15 07:36:15;;;;;;;7.40;4.75;;;20.50;46.40;;;24.14;31.57;102677.06;5093688;28;20533;-40
2021/11/15 07:38:42;;;;;;;6.88;4.82;;;20.50;46.40;;;24.16;31.42;102676.06;5093561;28;20048;-40
2021/11/15 07:41:08;;;;;;;7.05;4.78;;;20.50;46.40;;;24.17;31.61;102671.59;5093716;28;20041;-39
2021/11/15 07:43:34;;;;;;;7.65;5.10;;;20.50;46.40;;;24.14;31.46;102672.63;5093471;28;20059;-39
2021/11/15 07:46:00;;;;;;;6.90;5.30;;;20.50;46.40;;;24.18;31.35;102676.88;5093753;28;20048;-40
2021/11/15 07:48:28;;;;;;;6.07;4.95;;;20.50;46.40;;;24.16;31.63;102675.22;5075239;28;20044;-39
2021/11/15 07:50:54;;;;;;;6.10;4.35;;;20.50;46.40;;;24.18;31.65;102682.22;5076047;28;20056;-39
2021/11/15 07:53:20;;;;;;;7.47;5.18;;;20.60;46.40;;;24.17;31.60;102672.47;5093555;28;20052;-39
2021/11/15 07:55:46;;;;;;;8.15;5.40;;;20.60;46.40;;;24.21;31.57;102678.53;5093588;28;20048;-39
2021/11/15 07:58:14;;;;;;;7.75;5.22;;;20.60;46.40;;;24.17;31.45;102659.13;5093261;28;20048;-39
2021/11/15 08:00:40;;;;;;;7.55;5.22;;;20.60;46.30;;;24.18;31.28;102670.66;5093526;28;20047;-39
2021/11/15 08:03:07;;;;;;;6.00;4.82;;;20.60;46.30;;;24.19;31.48;102672.38;5093692;28;20040;-39
2021/11/15 08:05:34;;;;;;;7.03;4.80;;;20.60;46.30;;;24.20;31.54;102674.13;5093214;28;20109;-39
2021/11/15 08:08:02;;;;;;;5.40;4.75;;;20.60;46.30;;;24.22;31.44;102677.59;5093139;28;20139;-39
2021/11/15 08:10:28;;;;;;;7.80;5.50;;;20.60;46.30;;;24.23;31.51;102666.81;5093447;28;20105;-39
2021/11/15 08:12:57;;;;;;;7.03;5.28;;;20.60;46.30;;;24.23;31.32;102673.97;5093184;28;20044;-39
2021/11/15 08:15:25;;;;;;;6.63;4.97;;;20.60;46.30;;;24.20;31.38;102672.31;5092836;28;20459;-38
2021/11/15 08:17:54;;;;;;;6.75;5.22;;;20.60;46.30;;;24.23;31.38;102676.66;5092736;28;20109;-39
2021/11/15 08:20:30;;;;;;;6.70;5.03;;;20.60;46.30;;;24.22;31.31;102673.13;5092924;28;20052;-39
2021/11/15 08:23:07;;;;;;;7.65;5.28;;;20.60;46.30;;;24.22;31.49;102681.16;5092987;28;20084;-40
2021/11/15 08:26:23;;;;;;;6.07;4.82;;;20.60;46.30;;;24.26;31.61;102686.31;5092254;28;20066;-39
2021/11/15 08:28:49;;;;;;;7.43;5.07;;;20.60;46.30;;;24.22;31.18;102689.16;5092923;28;20450;-39
2021/11/15 08:31:15;;;;;;;6.28;4.50;;;20.60;46.20;;;24.22;31.43;102689.16;5092735;28;20044;-39
2021/11/15 08:33:41;;;;;;;7.95;5.60;;;20.60;46.20;;;24.24;31.37;102689.09;5074154;28;20047;-39
2021/11/15 08:36:08;;;;;;;7.30;4.90;;;20.60;46.20;;;24.21;31.39;102686.56;5093227;28;20494;-39
2021/11/15 08:38:58;;;;;;;8.63;5.57;;;20.60;46.30;;;24.19;31.40;102686.63;5092704;28;20051;-40
2021/11/15 08:41:30;;;;;;;6.10;4.97;;;20.60;46.20;;;24.23;31.54;102692.69;5092774;28;20059;-40
2021/11/15 08:43:58;;;;;;;5.93;4.63;;;20.60;46.20;;;24.27;31.30;102704.09;5092759;28;20064;-39
2021/11/15 08:46:29;;;;;;;8.00;5.53;;;20.60;46.20;;;24.25;31.54;102698.81;5092253;28;20135;-39
2021/11/15 08:48:57;;;;;;;7.38;5.28;;;20.60;46.20;;;24.27;31.43;102701.44;5092413;28;20052;-43
2021/11/15 08:51:23;;;;;;;6.93;5.03;;;20.60;46.20;;;24.22;31.35;102697.19;5092544;28;20444;-40
2021/11/15 08:53:51;;;;;;;6.53;4.60;;;20.70;46.20;;;24.27;31.53;102709.44;5092467;28;20113;-40
2021/11/15 08:56:18;;;;;;;7.15;5.53;;;20.60;46.20;;;24.25;31.50;102695.28;5092333;28;20044;-39
2021/11/15 08:58:46;;;;;;;6.95;5.15;;;20.70;46.20;;;24.27;31.44;102694.28;5092140;28;20059;-39
2021/11/15 09:01:12;;;;;;;6.93;5.18;;;20.60;46.20;;;24.25;31.34;102701.50;5074043;28;20105;-39
2021/11/15 09:03:39;;;;;;;7.88;5.35;;;20.60;46.20;;;24.27;31.34;102691.59;5092435;28;20143;-40
2021/11/15 09:06:06;;;;;;;8.35;5.55;;;20.60;46.10;;;24.27;31.42;102696.94;5092409;28;20510;-39
2021/11/15 09:08:34;;;;;;;6.80;5.43;;;20.70;46.70;;;24.25;31.42;102688.13;5088358;28;20074;-40
2021/11/15 09:11:00;;;;;;;6.35;4.85;;;20.70;46.20;;;24.28;31.35;102685.31;5073916;28;20044;-39
2021/11/15 09:13:26;;;;;;;7.10;4.85;;;20.70;46.20;;;24.26;31.49;102683.66;5092327;28;20130;-39
2021/11/15 09:15:52;;;;;;;8.00;5.35;;;20.60;46.10;;;24.29;31.28;102689.75;5092024;28;20047;-39
2021/11/15 09:18:18;;;;;;;6.93;5.20;;;20.60;46.10;;;24.29;31.28;102687.06;5092060;28;20490;-39
2021/11/15 09:20:44;;;;;;;7.85;5.68;;;20.60;46.10;;;24.27;31.32;102683.56;5092206;28;20094;-41
2021/11/15 09:23:10;;;;;;;6.95;4.90;;;20.60;46.10;;;24.28;31.40;102682.66;5092208;28;20048;-40
2021/11/15 09:25:40;;;;;;;6.40;4.85;;;20.70;46.10;;;24.31;31.45;102687.00;5092036;28;20063;-40
2021/11/15 09:28:10;;;;;;;7.22;5.13;;;20.70;46.20;;;24.29;31.44;102684.41;5092073;28;20059;-39
2021/11/15 09:30:40;;;;;;;6.50;4.78;;;20.70;46.20;;;24.27;31.45;102686.25;5091945;28;20044;-41
2021/11/15 09:33:07;;;;;;;8.60;5.45;;;20.60;46.10;;;24.29;31.28;102683.50;5092343;28;20407;-40
2021/11/15 09:35:35;;;;;;;7.60;5.60;;;20.70;46.20;;;24.31;31.41;102695.03;5091850;28;20139;-39
2021/11/15 09:38:03;;;;;;;7.05;5.85;;;20.70;46.10;;;24.30;31.22;102691.47;5092730;28;20101;-40
2021/11/15 09:40:32;;;;;;;8.75;5.55;;;20.70;46.10;;;24.32;31.27;102694.06;5095528;28;20176;-40
2021/11/15 09:42:58;;;;;;;10.05;5.55;;;20.70;46.10;;;24.26;31.39;102692.56;5095489;28;20040;-40
2021/11/15 09:45:26;;;;;;;8.88;5.43;;;20.70;46.10;;;24.27;31.30;102694.28;5075421;28;20474;-39
2021/11/15 09:47:55;;;;;;;7.32;5.00;;;20.70;46.10;;;24.32;31.24;102699.41;5094886;28;20082;-40
2021/11/15 09:50:22;;;;;;;6.82;5.65;;;20.70;46.10;;;24.30;31.38;102699.47;5095532;28;20101;-40
2021/11/15 09:52:49;;;;;;;6.97;5.18;;;20.70;46.10;;;24.30;31.34;102698.63;5095037;28;20044;-39
2021/11/15 09:55:16;;;;;;;7.15;5.35;;;20.70;46.10;;;24.31;31.19;102687.84;5095449;28;20044;-39
2021/11/15 09:57:45;;;;;;;8.65;6.03;;;20.70;46.10;;;24.33;31.35;102687.78;5094907;28;20105;-39
2021/11/15 10:00:20;;;;;;;6.80;5.30;;;20.70;46.10;;;24.33;31.14;102690.47;5094711;28;20086;-39
2021/11/15 10:02:46;;;;;;;7.85;5.72;;;20.70;46.00;;;24.32;31.42;102686.91;5076128;28;20083;-39
2021/11/15 10:05:12;;;;;;;8.30;5.70;;;20.70;46.00;;;24.31;31.17;102687.00;5094773;28;20051;-39
2021/11/15 10:07:41;;;;;;;7.78;5.70;;;20.70;46.00;;;24.34;31.26;102692.16;5094920;28;20579;-40
2021/11/15 10:10:34;;;;;;;6.55;5.13;;;20.70;46.00;;;24.35;31.43;102693.91;5094914;28;20040;-39
2021/11/15 10:13:10;;;;;;;7.35;5.63;;;20.70;46.00;;;24.33;31.19;102695.81;5077040;28;20059;-39
2021/11/15 10:15:59;;;;;;;7.63;5.32;;;20.80;46.00;;;24.34;31.23;102693.06;5095193;28;20392;-39